sensor_id;sensor_type;location;lat;lon;timestamp;P1;durP1;ratioP1;P2;durP2;ratioP2
80868;SDS011;70295;40.182;44.498;2024-03-02T00:01:31;32.6;;;18.3;;
80868;SDS011;70295;40.182;44.498;2024-03-02T00:03:31;33.6;;;17.2;;
80868;SDS011;70295;40.182;44.498;2024-03-02T00:05:31;32.6;;;17.2;;
80868;SDS011;70295;40.182;44.498;2024-03-02T00:07:31;35;;;16.9;;
80868;SDS011;70295;40.182;44.498;2024-03-02T00:09:31;32.6;;;16;;
80868;SDS011;70295;40.182;44.498;2024-03-02T00:11:33;29.7;;;15.2;;
80868;SDS011;70295;40.182;44.498;2024-03-02T00:13:31;27.7;;;15.5;;
80868;SDS011;70295;40.182;44.498;2024-03-02T00:17:31;26;;;14.5;;
80868;SDS011;70295;40.182;44.498;2024-03-02T00:19:31;27.8;;;14.9;;
80868;SDS011;70295;40.182;44.498;2024-03-02T00:21:34;30;;;13.7;;
80868;SDS011;70295;40.182;44.498;2024-03-02T00:23:31;27.8;;;16;;
80868;SDS011;70295;40.182;44.498;2024-03-02T00:25:38;24.4;;;13.9;;
80868;SDS011;70295;40.182;44.498;2024-03-02T00:27:31;28.7;;;15.1;;
80868;SDS011;70295;40.182;44.498;2024-03-02T00:29:31;29.2;;;15;;
80868;SDS011;70295;40.182;44.498;2024-03-02T00:31:32;32.9;;;15.7;;
80868;SDS011;70295;40.182;44.498;2024-03-02T00:33:33;28.7;;;15.1;;
80868;SDS011;70295;40.182;44.498;2024-03-02T00:35:31;30.9;;;15.7;;
80868;SDS011;70295;40.182;44.498;2024-03-02T00:37:31;29.5;;;15.6;;
80868;SDS011;70295;40.182;44.498;2024-03-02T00:39:30;27.6;;;14.9;;
80868;SDS011;70295;40.182;44.498;2024-03-02T00:41:31;31.9;;;15.5;;
80868;SDS011;70295;40.182;44.498;2024-03-02T00:45:31;26;;;13.8;;
80868;SDS011;70295;40.182;44.498;2024-03-02T00:47:31;29.2;;;14.4;;
80868;SDS011;70295;40.182;44.498;2024-03-02T00:49:31;25.6;;;12.9;;
80868;SDS011;70295;40.182;44.498;2024-03-02T00:51:32;27;;;14.7;;
80868;SDS011;70295;40.182;44.498;2024-03-02T00:53:31;25.7;;;14;;
80868;SDS011;70295;40.182;44.498;2024-03-02T00:55:31;24;;;14.1;;
80868;SDS011;70295;40.182;44.498;2024-03-02T00:57:34;26;;;13.6;;
80868;SDS011;70295;40.182;44.498;2024-03-02T00:59:31;25.5;;;12.9;;
80868;SDS011;70295;40.182;44.498;2024-03-02T01:01:31;25.4;;;13.8;;
80868;SDS011;70295;40.182;44.498;2024-03-02T01:03:32;25.7;;;12.8;;
80868;SDS011;70295;40.182;44.498;2024-03-02T01:05:30;26.4;;;14.1;;
80868;SDS011;70295;40.182;44.498;2024-03-02T01:07:31;24.4;;;13.1;;
80868;SDS011;70295;40.182;44.498;2024-03-02T01:09:31;24.4;;;12.7;;
80868;SDS011;70295;40.182;44.498;2024-03-02T01:11:31;24.2;;;12.7;;
80868;SDS011;70295;40.182;44.498;2024-03-02T01:13:31;27.8;;;12.9;;
80868;SDS011;70295;40.182;44.498;2024-03-02T01:15:30;24.6;;;12.4;;
80868;SDS011;70295;40.182;44.498;2024-03-02T01:17:30;25.4;;;13.2;;
80868;SDS011;70295;40.182;44.498;2024-03-02T01:19:31;25.8;;;12.7;;
80868;SDS011;70295;40.182;44.498;2024-03-02T01:21:31;26;;;13.9;;
80868;SDS011;70295;40.182;44.498;2024-03-02T01:23:31;24.4;;;12.6;;
80868;SDS011;70295;40.182;44.498;2024-03-02T01:25:30;28.4;;;12.9;;
80868;SDS011;70295;40.182;44.498;2024-03-02T01:27:30;28.6;;;13.6;;
80868;SDS011;70295;40.182;44.498;2024-03-02T01:29:31;28.4;;;14.8;;
80868;SDS011;70295;40.182;44.498;2024-03-02T01:31:31;25.6;;;14.1;;
80868;SDS011;70295;40.182;44.498;2024-03-02T01:33:31;25.6;;;13.8;;
80868;SDS011;70295;40.182;44.498;2024-03-02T01:35:31;27.5;;;12.3;;
80868;SDS011;70295;40.182;44.498;2024-03-02T01:37:30;29.8;;;14.8;;
80868;SDS011;70295;40.182;44.498;2024-03-02T01:39:30;31.4;;;14.1;;
80868;SDS011;70295;40.182;44.498;2024-03-02T01:41:31;24.4;;;13.7;;
80868;SDS011;70295;40.182;44.498;2024-03-02T01:43:30;24.9;;;12.9;;
80868;SDS011;70295;40.182;44.498;2024-03-02T01:45:31;24.6;;;12.8;;
80868;SDS011;70295;40.182;44.498;2024-03-02T01:47:31;25.8;;;13.1;;
80868;SDS011;70295;40.182;44.498;2024-03-02T01:49:31;28.2;;;12.6;;
80868;SDS011;70295;40.182;44.498;2024-03-02T01:51:30;23.4;;;12.4;;
80868;SDS011;70295;40.182;44.498;2024-03-02T01:53:30;22.8;;;11.1;;
80868;SDS011;70295;40.182;44.498;2024-03-02T01:55:31;23.3;;;12.4;;
80868;SDS011;70295;40.182;44.498;2024-03-02T01:57:31;24.6;;;12.9;;
80868;SDS011;70295;40.182;44.498;2024-03-02T01:59:31;23.2;;;12.3;;
80868;SDS011;70295;40.182;44.498;2024-03-02T02:01:31;23.7;;;11.7;;
80868;SDS011;70295;40.182;44.498;2024-03-02T02:03:30;21.6;;;11.6;;
80868;SDS011;70295;40.182;44.498;2024-03-02T02:05:30;22.6;;;11.8;;
80868;SDS011;70295;40.182;44.498;2024-03-02T02:07:30;20.8;;;11.5;;
80868;SDS011;70295;40.182;44.498;2024-03-02T02:09:31;21.9;;;10.9;;
80868;SDS011;70295;40.182;44.498;2024-03-02T02:11:34;21.6;;;11.2;;
80868;SDS011;70295;40.182;44.498;2024-03-02T02:13:31;25;;;12.2;;
80868;SDS011;70295;40.182;44.498;2024-03-02T02:15:31;21.2;;;10.5;;
80868;SDS011;70295;40.182;44.498;2024-03-02T02:17:30;20.4;;;10.5;;
80868;SDS011;70295;40.182;44.498;2024-03-02T02:19:30;22.4;;;11.1;;
80868;SDS011;70295;40.182;44.498;2024-03-02T02:21:30;19;;;10.9;;
80868;SDS011;70295;40.182;44.498;2024-03-02T02:23:31;21.3;;;11.1;;
80868;SDS011;70295;40.182;44.498;2024-03-02T02:25:30;21.1;;;10.7;;
80868;SDS011;70295;40.182;44.498;2024-03-02T02:27:30;18.9;;;10.1;;
80868;SDS011;70295;40.182;44.498;2024-03-02T02:29:30;21.6;;;11.1;;
80868;SDS011;70295;40.182;44.498;2024-03-02T02:31:38;17.2;;;9.5;;
80868;SDS011;70295;40.182;44.498;2024-03-02T02:33:30;19.1;;;9.6;;
80868;SDS011;70295;40.182;44.498;2024-03-02T02:35:30;19.2;;;10.5;;
80868;SDS011;70295;40.182;44.498;2024-03-02T02:37:30;15.5;;;8.5;;
80868;SDS011;70295;40.182;44.498;2024-03-02T02:39:30;16;;;8.1;;
80868;SDS011;70295;40.182;44.498;2024-03-02T02:41:30;19.1;;;8.3;;
80868;SDS011;70295;40.182;44.498;2024-03-02T02:43:30;16.2;;;8.4;;
80868;SDS011;70295;40.182;44.498;2024-03-02T02:45:30;20.1;;;9.3;;
80868;SDS011;70295;40.182;44.498;2024-03-02T02:47:30;16.4;;;8.6;;
80868;SDS011;70295;40.182;44.498;2024-03-02T02:49:31;17.4;;;8.6;;
80868;SDS011;70295;40.182;44.498;2024-03-02T02:51:30;17.9;;;8.4;;
80868;SDS011;70295;40.182;44.498;2024-03-02T02:53:30;18;;;8.3;;
80868;SDS011;70295;40.182;44.498;2024-03-02T02:55:30;15.4;;;8.1;;
80868;SDS011;70295;40.182;44.498;2024-03-02T02:57:31;17.8;;;7.7;;
80868;SDS011;70295;40.182;44.498;2024-03-02T02:59:30;16.8;;;7.9;;
80868;SDS011;70295;40.182;44.498;2024-03-02T03:01:30;17.6;;;7.6;;
80868;SDS011;70295;40.182;44.498;2024-03-02T03:03:30;18.4;;;7.6;;
80868;SDS011;70295;40.182;44.498;2024-03-02T03:05:30;16.9;;;7.6;;
80868;SDS011;70295;40.182;44.498;2024-03-02T03:07:30;16.4;;;7.6;;
80868;SDS011;70295;40.182;44.498;2024-03-02T03:09:30;16.6;;;8.1;;
80868;SDS011;70295;40.182;44.498;2024-03-02T03:11:30;15.9;;;8.2;;
80868;SDS011;70295;40.182;44.498;2024-03-02T03:13:34;17.1;;;7.9;;
80868;SDS011;70295;40.182;44.498;2024-03-02T03:15:30;19.9;;;9.6;;
80868;SDS011;70295;40.182;44.498;2024-03-02T03:17:30;19.9;;;8.9;;
80868;SDS011;70295;40.182;44.498;2024-03-02T03:19:30;20;;;9.8;;
80868;SDS011;70295;40.182;44.498;2024-03-02T03:21:30;20.1;;;10.1;;
80868;SDS011;70295;40.182;44.498;2024-03-02T03:23:30;17.9;;;9.6;;
80868;SDS011;70295;40.182;44.498;2024-03-02T03:25:30;21.6;;;9.5;;
80868;SDS011;70295;40.182;44.498;2024-03-02T03:27:30;18.9;;;9.2;;
80868;SDS011;70295;40.182;44.498;2024-03-02T03:29:30;18.8;;;9.3;;
80868;SDS011;70295;40.182;44.498;2024-03-02T03:31:30;19.3;;;10;;
80868;SDS011;70295;40.182;44.498;2024-03-02T03:33:30;23.7;;;10.2;;
80868;SDS011;70295;40.182;44.498;2024-03-02T03:35:30;22.4;;;10.9;;
80868;SDS011;70295;40.182;44.498;2024-03-02T03:37:30;21;;;10.2;;
80868;SDS011;70295;40.182;44.498;2024-03-02T03:39:30;18.9;;;10;;
80868;SDS011;70295;40.182;44.498;2024-03-02T03:41:30;20.6;;;10.2;;
80868;SDS011;70295;40.182;44.498;2024-03-02T03:43:30;26.6;;;12.7;;
80868;SDS011;70295;40.182;44.498;2024-03-02T03:45:30;23.8;;;12.5;;
80868;SDS011;70295;40.182;44.498;2024-03-02T03:47:31;23.2;;;13.1;;
80868;SDS011;70295;40.182;44.498;2024-03-02T03:49:30;25.7;;;12.5;;
80868;SDS011;70295;40.182;44.498;2024-03-02T03:51:30;21.3;;;12;;
80868;SDS011;70295;40.182;44.498;2024-03-02T03:53:30;24.5;;;11.7;;
80868;SDS011;70295;40.182;44.498;2024-03-02T03:55:31;26.4;;;12.2;;
80868;SDS011;70295;40.182;44.498;2024-03-02T03:57:30;25.9;;;12.3;;
80868;SDS011;70295;40.182;44.498;2024-03-02T03:59:30;24.2;;;11.2;;
80868;SDS011;70295;40.182;44.498;2024-03-02T04:01:30;24.6;;;12.5;;
80868;SDS011;70295;40.182;44.498;2024-03-02T04:03:30;26.8;;;12.4;;
80868;SDS011;70295;40.182;44.498;2024-03-02T04:05:30;27.6;;;12.5;;
80868;SDS011;70295;40.182;44.498;2024-03-02T04:07:30;26.7;;;12.6;;
80868;SDS011;70295;40.182;44.498;2024-03-02T04:09:30;27.5;;;13.2;;
80868;SDS011;70295;40.182;44.498;2024-03-02T04:11:30;25.3;;;13.4;;
80868;SDS011;70295;40.182;44.498;2024-03-02T04:13:30;25.1;;;12.5;;
80868;SDS011;70295;40.182;44.498;2024-03-02T04:15:30;27.2;;;12.5;;
80868;SDS011;70295;40.182;44.498;2024-03-02T04:17:32;22;;;12.5;;
80868;SDS011;70295;40.182;44.498;2024-03-02T04:19:30;24.7;;;12.2;;
80868;SDS011;70295;40.182;44.498;2024-03-02T04:21:30;24;;;11.6;;
80868;SDS011;70295;40.182;44.498;2024-03-02T04:23:30;24.6;;;12.6;;
80868;SDS011;70295;40.182;44.498;2024-03-02T04:25:30;20.5;;;10.9;;
80868;SDS011;70295;40.182;44.498;2024-03-02T04:27:31;20.7;;;10.5;;
80868;SDS011;70295;40.182;44.498;2024-03-02T04:29:30;20.7;;;10;;
80868;SDS011;70295;40.182;44.498;2024-03-02T04:31:30;17.8;;;9.2;;
80868;SDS011;70295;40.182;44.498;2024-03-02T04:33:30;20.3;;;9.4;;
80868;SDS011;70295;40.182;44.498;2024-03-02T04:35:30;19.4;;;9;;
80868;SDS011;70295;40.182;44.498;2024-03-02T04:37:31;17.7;;;9.2;;
80868;SDS011;70295;40.182;44.498;2024-03-02T04:39:30;14.9;;;9.4;;
80868;SDS011;70295;40.182;44.498;2024-03-02T04:41:30;18.3;;;9.2;;
80868;SDS011;70295;40.182;44.498;2024-03-02T04:43:30;19.3;;;9.3;;
80868;SDS011;70295;40.182;44.498;2024-03-02T04:45:30;18.3;;;9.4;;
80868;SDS011;70295;40.182;44.498;2024-03-02T04:47:30;17.6;;;9.1;;
80868;SDS011;70295;40.182;44.498;2024-03-02T04:49:30;18.9;;;9.3;;
80868;SDS011;70295;40.182;44.498;2024-03-02T04:51:30;18;;;8.8;;
80868;SDS011;70295;40.182;44.498;2024-03-02T04:53:30;17.1;;;8.7;;
80868;SDS011;70295;40.182;44.498;2024-03-02T04:55:30;17;;;8.3;;
80868;SDS011;70295;40.182;44.498;2024-03-02T04:57:30;18.6;;;9.4;;
80868;SDS011;70295;40.182;44.498;2024-03-02T04:59:30;17.1;;;9.4;;
80868;SDS011;70295;40.182;44.498;2024-03-02T05:01:30;16.6;;;8.3;;
80868;SDS011;70295;40.182;44.498;2024-03-02T05:03:30;14.7;;;8.8;;
80868;SDS011;70295;40.182;44.498;2024-03-02T05:05:30;16.7;;;8.8;;
80868;SDS011;70295;40.182;44.498;2024-03-02T05:07:30;20.5;;;9.8;;
80868;SDS011;70295;40.182;44.498;2024-03-02T05:09:30;19.4;;;9.2;;
80868;SDS011;70295;40.182;44.498;2024-03-02T05:11:30;18.7;;;9.5;;
80868;SDS011;70295;40.182;44.498;2024-03-02T05:13:30;20;;;9.2;;
80868;SDS011;70295;40.182;44.498;2024-03-02T05:15:30;18.9;;;9.1;;
80868;SDS011;70295;40.182;44.498;2024-03-02T05:17:30;16.8;;;9;;
80868;SDS011;70295;40.182;44.498;2024-03-02T05:19:30;18.6;;;9.2;;
80868;SDS011;70295;40.182;44.498;2024-03-02T05:21:30;17.8;;;9.3;;
80868;SDS011;70295;40.182;44.498;2024-03-02T05:23:30;16.4;;;8.9;;
80868;SDS011;70295;40.182;44.498;2024-03-02T05:25:30;17.3;;;8.3;;
80868;SDS011;70295;40.182;44.498;2024-03-02T05:27:30;15.6;;;8.2;;
80868;SDS011;70295;40.182;44.498;2024-03-02T05:29:30;14.2;;;8.4;;
80868;SDS011;70295;40.182;44.498;2024-03-02T05:31:30;16.4;;;8.3;;
80868;SDS011;70295;40.182;44.498;2024-03-02T05:33:30;16.6;;;8.8;;
80868;SDS011;70295;40.182;44.498;2024-03-02T05:35:30;16.7;;;8.5;;
80868;SDS011;70295;40.182;44.498;2024-03-02T05:37:30;16.2;;;8.6;;
80868;SDS011;70295;40.182;44.498;2024-03-02T05:39:30;16.6;;;9.5;;
80868;SDS011;70295;40.182;44.498;2024-03-02T05:41:30;16;;;9.8;;
80868;SDS011;70295;40.182;44.498;2024-03-02T05:43:30;15.3;;;8.6;;
80868;SDS011;70295;40.182;44.498;2024-03-02T05:45:30;12.9;;;8.6;;
80868;SDS011;70295;40.182;44.498;2024-03-02T05:47:30;15.9;;;8;;
80868;SDS011;70295;40.182;44.498;2024-03-02T05:49:30;16.7;;;8.9;;
80868;SDS011;70295;40.182;44.498;2024-03-02T05:51:30;13.3;;;7.9;;
80868;SDS011;70295;40.182;44.498;2024-03-02T05:53:30;15.2;;;8.4;;
80868;SDS011;70295;40.182;44.498;2024-03-02T05:55:30;15.6;;;8.9;;
80868;SDS011;70295;40.182;44.498;2024-03-02T05:57:30;15.5;;;8.5;;
80868;SDS011;70295;40.182;44.498;2024-03-02T05:59:30;15.3;;;9.3;;
80868;SDS011;70295;40.182;44.498;2024-03-02T06:01:30;18;;;10.1;;
80868;SDS011;70295;40.182;44.498;2024-03-02T06:03:30;18;;;10.2;;
80868;SDS011;70295;40.182;44.498;2024-03-02T06:05:30;18.2;;;10;;
80868;SDS011;70295;40.182;44.498;2024-03-02T06:07:30;22.9;;;12.1;;
80868;SDS011;70295;40.182;44.498;2024-03-02T06:09:30;22.3;;;12.1;;
80868;SDS011;70295;40.182;44.498;2024-03-02T06:11:30;21.9;;;12.2;;
80868;SDS011;70295;40.182;44.498;2024-03-02T06:13:30;21.2;;;12;;
80868;SDS011;70295;40.182;44.498;2024-03-02T06:15:30;22.8;;;11.7;;
80868;SDS011;70295;40.182;44.498;2024-03-02T06:17:30;24.7;;;12.9;;
80868;SDS011;70295;40.182;44.498;2024-03-02T06:19:30;21.2;;;11.6;;
80868;SDS011;70295;40.182;44.498;2024-03-02T06:21:30;22.8;;;11.7;;
80868;SDS011;70295;40.182;44.498;2024-03-02T06:23:30;25.1;;;13.4;;
80868;SDS011;70295;40.182;44.498;2024-03-02T06:25:30;23.6;;;12.3;;
80868;SDS011;70295;40.182;44.498;2024-03-02T06:27:30;23;;;12.4;;
80868;SDS011;70295;40.182;44.498;2024-03-02T06:29:32;22.6;;;12.5;;
80868;SDS011;70295;40.182;44.498;2024-03-02T06:31:30;20.9;;;11.8;;
80868;SDS011;70295;40.182;44.498;2024-03-02T06:33:30;25.7;;;13.9;;
80868;SDS011;70295;40.182;44.498;2024-03-02T06:35:30;26.7;;;13.2;;
80868;SDS011;70295;40.182;44.498;2024-03-02T06:37:30;29.2;;;13;;
80868;SDS011;70295;40.182;44.498;2024-03-02T06:39:30;24.6;;;12.6;;
80868;SDS011;70295;40.182;44.498;2024-03-02T06:41:30;22.3;;;12.1;;
80868;SDS011;70295;40.182;44.498;2024-03-02T06:43:30;24.9;;;13.2;;
80868;SDS011;70295;40.182;44.498;2024-03-02T06:45:30;23.1;;;13;;
80868;SDS011;70295;40.182;44.498;2024-03-02T06:47:30;26.2;;;13.1;;
80868;SDS011;70295;40.182;44.498;2024-03-02T06:49:30;26.8;;;13.3;;
80868;SDS011;70295;40.182;44.498;2024-03-02T06:51:30;24.4;;;12.4;;
80868;SDS011;70295;40.182;44.498;2024-03-02T06:53:30;23.7;;;12.6;;
80868;SDS011;70295;40.182;44.498;2024-03-02T06:55:30;27;;;13.1;;
80868;SDS011;70295;40.182;44.498;2024-03-02T06:57:30;31.8;;;14.7;;
80868;SDS011;70295;40.182;44.498;2024-03-02T06:59:30;30.7;;;14.7;;
80868;SDS011;70295;40.182;44.498;2024-03-02T07:01:30;33.5;;;14.8;;
80868;SDS011;70295;40.182;44.498;2024-03-02T07:03:30;37.3;;;18.1;;
80868;SDS011;70295;40.182;44.498;2024-03-02T07:05:30;39.1;;;18.4;;
80868;SDS011;70295;40.182;44.498;2024-03-02T07:07:30;42.6;;;19.4;;
80868;SDS011;70295;40.182;44.498;2024-03-02T07:09:30;47.9;;;20.9;;
80868;SDS011;70295;40.182;44.498;2024-03-02T07:11:30;46.5;;;22;;
80868;SDS011;70295;40.182;44.498;2024-03-02T07:13:30;41.7;;;19.4;;
80868;SDS011;70295;40.182;44.498;2024-03-02T07:15:30;39.1;;;17.9;;
80868;SDS011;70295;40.182;44.498;2024-03-02T07:17:31;39.2;;;18.5;;
80868;SDS011;70295;40.182;44.498;2024-03-02T07:19:30;38.5;;;18.1;;
80868;SDS011;70295;40.182;44.498;2024-03-02T07:21:30;40.9;;;20.9;;
80868;SDS011;70295;40.182;44.498;2024-03-02T07:23:30;45.9;;;22.2;;
80868;SDS011;70295;40.182;44.498;2024-03-02T07:25:30;59.4;;;26.1;;
80868;SDS011;70295;40.182;44.498;2024-03-02T07:27:31;66.9;;;28.9;;
80868;SDS011;70295;40.182;44.498;2024-03-02T07:29:31;65.6;;;31.6;;
80868;SDS011;70295;40.182;44.498;2024-03-02T07:31:32;89.7;;;37.7;;
80868;SDS011;70295;40.182;44.498;2024-03-02T07:33:33;106.2;;;44.8;;
80868;SDS011;70295;40.182;44.498;2024-03-02T07:35:30;136.8;;;54.9;;
80868;SDS011;70295;40.182;44.498;2024-03-02T07:37:30;145.7;;;58.9;;
80868;SDS011;70295;40.182;44.498;2024-03-02T07:39:30;141.2;;;57.6;;
80868;SDS011;70295;40.182;44.498;2024-03-02T07:41:30;141.5;;;57.2;;
80868;SDS011;70295;40.182;44.498;2024-03-02T07:43:32;134;;;56.6;;
80868;SDS011;70295;40.182;44.498;2024-03-02T07:45:30;129.9;;;53.1;;
80868;SDS011;70295;40.182;44.498;2024-03-02T07:47:30;116.9;;;48.9;;
80868;SDS011;70295;40.182;44.498;2024-03-02T07:49:30;117.7;;;48.5;;
80868;SDS011;70295;40.182;44.498;2024-03-02T07:51:30;123;;;50.1;;
80868;SDS011;70295;40.182;44.498;2024-03-02T07:53:30;116.2;;;48;;
80868;SDS011;70295;40.182;44.498;2024-03-02T07:55:30;106.7;;;46.7;;
80868;SDS011;70295;40.182;44.498;2024-03-02T07:57:30;105.4;;;43.7;;
80868;SDS011;70295;40.182;44.498;2024-03-02T07:59:30;112.7;;;43.9;;
80868;SDS011;70295;40.182;44.498;2024-03-02T08:01:31;94.8;;;40.9;;
80868;SDS011;70295;40.182;44.498;2024-03-02T08:03:30;98.5;;;41.9;;
80868;SDS011;70295;40.182;44.498;2024-03-02T08:05:30;88.7;;;40;;
80868;SDS011;70295;40.182;44.498;2024-03-02T08:07:30;92.9;;;40.2;;
80868;SDS011;70295;40.182;44.498;2024-03-02T08:09:30;94.5;;;39.8;;
80868;SDS011;70295;40.182;44.498;2024-03-02T08:11:30;78.1;;;36.1;;
80868;SDS011;70295;40.182;44.498;2024-03-02T08:13:30;91;;;36.5;;
80868;SDS011;70295;40.182;44.498;2024-03-02T08:15:30;95.2;;;35.3;;
80868;SDS011;70295;40.182;44.498;2024-03-02T08:17:30;81.8;;;32.7;;
80868;SDS011;70295;40.182;44.498;2024-03-02T08:19:30;70.6;;;29.8;;
80868;SDS011;70295;40.182;44.498;2024-03-02T08:21:31;54.4;;;24.1;;
80868;SDS011;70295;40.182;44.498;2024-03-02T08:23:30;51.1;;;23.1;;
80868;SDS011;70295;40.182;44.498;2024-03-02T08:25:30;54.8;;;24.1;;
80868;SDS011;70295;40.182;44.498;2024-03-02T08:27:31;46.2;;;21.4;;
80868;SDS011;70295;40.182;44.498;2024-03-02T08:29:30;33.8;;;17.7;;
80868;SDS011;70295;40.182;44.498;2024-03-02T08:31:30;30.7;;;15.9;;
80868;SDS011;70295;40.182;44.498;2024-03-02T08:33:30;31.7;;;15.8;;
80868;SDS011;70295;40.182;44.498;2024-03-02T08:35:30;24.8;;;14.2;;
80868;SDS011;70295;40.182;44.498;2024-03-02T08:37:30;25.9;;;14.5;;
80868;SDS011;70295;40.182;44.498;2024-03-02T08:39:30;32.5;;;17.3;;
80868;SDS011;70295;40.182;44.498;2024-03-02T08:41:30;38.7;;;18.8;;
80868;SDS011;70295;40.182;44.498;2024-03-02T08:43:30;37.7;;;18.5;;
80868;SDS011;70295;40.182;44.498;2024-03-02T08:45:30;35.1;;;19.2;;
80868;SDS011;70295;40.182;44.498;2024-03-02T08:47:30;34.8;;;17.2;;
80868;SDS011;70295;40.182;44.498;2024-03-02T08:49:30;29.8;;;16.3;;
80868;SDS011;70295;40.182;44.498;2024-03-02T08:51:30;31.1;;;15.4;;
80868;SDS011;70295;40.182;44.498;2024-03-02T08:53:30;25.4;;;15.2;;
80868;SDS011;70295;40.182;44.498;2024-03-02T08:55:30;29.3;;;15.4;;
80868;SDS011;70295;40.182;44.498;2024-03-02T08:57:30;29.6;;;15;;
80868;SDS011;70295;40.182;44.498;2024-03-02T08:59:31;28.9;;;16.2;;
80868;SDS011;70295;40.182;44.498;2024-03-02T09:01:31;28.5;;;16;;
80868;SDS011;70295;40.182;44.498;2024-03-02T09:03:30;30.2;;;15.6;;
80868;SDS011;70295;40.182;44.498;2024-03-02T09:05:30;29.7;;;15.7;;
80868;SDS011;70295;40.182;44.498;2024-03-02T09:07:30;26.1;;;15.5;;
80868;SDS011;70295;40.182;44.498;2024-03-02T09:09:30;29.8;;;15.5;;
80868;SDS011;70295;40.182;44.498;2024-03-02T09:11:30;28.4;;;15.3;;
80868;SDS011;70295;40.182;44.498;2024-03-02T09:13:30;23.9;;;14.3;;
80868;SDS011;70295;40.182;44.498;2024-03-02T09:15:30;28.9;;;14.7;;
80868;SDS011;70295;40.182;44.498;2024-03-02T09:17:30;28.8;;;14.8;;
80868;SDS011;70295;40.182;44.498;2024-03-02T09:19:30;27.8;;;15.6;;
80868;SDS011;70295;40.182;44.498;2024-03-02T09:21:30;29.4;;;15.2;;
80868;SDS011;70295;40.182;44.498;2024-03-02T09:23:30;26;;;14.5;;
80868;SDS011;70295;40.182;44.498;2024-03-02T09:25:30;26.4;;;14.8;;
80868;SDS011;70295;40.182;44.498;2024-03-02T09:27:30;25.8;;;15.6;;
80868;SDS011;70295;40.182;44.498;2024-03-02T09:29:30;28.3;;;15.7;;
80868;SDS011;70295;40.182;44.498;2024-03-02T09:31:31;26.4;;;15.3;;
80868;SDS011;70295;40.182;44.498;2024-03-02T09:33:31;26.6;;;14.4;;
80868;SDS011;70295;40.182;44.498;2024-03-02T09:35:30;25.7;;;14.6;;
80868;SDS011;70295;40.182;44.498;2024-03-02T09:37:32;23.4;;;13.4;;
80868;SDS011;70295;40.182;44.498;2024-03-02T09:39:31;25.8;;;15.2;;
80868;SDS011;70295;40.182;44.498;2024-03-02T09:41:30;23.9;;;13.9;;
80868;SDS011;70295;40.182;44.498;2024-03-02T09:43:31;24.4;;;13.8;;
80868;SDS011;70295;40.182;44.498;2024-03-02T09:45:30;24.9;;;13.6;;
80868;SDS011;70295;40.182;44.498;2024-03-02T09:47:30;23.6;;;14.4;;
80868;SDS011;70295;40.182;44.498;2024-03-02T09:49:30;24.9;;;13.9;;
80868;SDS011;70295;40.182;44.498;2024-03-02T09:51:31;25;;;13.8;;
80868;SDS011;70295;40.182;44.498;2024-03-02T09:53:33;24.4;;;14.1;;
80868;SDS011;70295;40.182;44.498;2024-03-02T09:55:30;21;;;13.1;;
80868;SDS011;70295;40.182;44.498;2024-03-02T09:57:30;23.7;;;14.2;;
80868;SDS011;70295;40.182;44.498;2024-03-02T09:59:30;23.1;;;13.2;;
80868;SDS011;70295;40.182;44.498;2024-03-02T10:01:30;21.4;;;13;;
80868;SDS011;70295;40.182;44.498;2024-03-02T10:03:30;22.6;;;12.6;;
80868;SDS011;70295;40.182;44.498;2024-03-02T10:05:30;22.1;;;12.2;;
80868;SDS011;70295;40.182;44.498;2024-03-02T10:07:30;22.3;;;11.9;;
80868;SDS011;70295;40.182;44.498;2024-03-02T10:09:30;22.5;;;12.6;;
80868;SDS011;70295;40.182;44.498;2024-03-02T10:11:34;20.3;;;12;;
80868;SDS011;70295;40.182;44.498;2024-03-02T10:13:30;20;;;12.5;;
80868;SDS011;70295;40.182;44.498;2024-03-02T10:15:30;21.5;;;12.8;;
80868;SDS011;70295;40.182;44.498;2024-03-02T10:17:31;22.4;;;13.1;;
80868;SDS011;70295;40.182;44.498;2024-03-02T10:19:30;22.3;;;13.6;;
80868;SDS011;70295;40.182;44.498;2024-03-02T10:21:30;20.4;;;12.8;;
80868;SDS011;70295;40.182;44.498;2024-03-02T10:23:30;20.3;;;12.5;;
80868;SDS011;70295;40.182;44.498;2024-03-02T10:25:33;21.9;;;13.5;;
80868;SDS011;70295;40.182;44.498;2024-03-02T10:27:30;25.1;;;14;;
80868;SDS011;70295;40.182;44.498;2024-03-02T10:29:30;23.1;;;12.9;;
80868;SDS011;70295;40.182;44.498;2024-03-02T10:31:30;20.5;;;12.1;;
80868;SDS011;70295;40.182;44.498;2024-03-02T10:33:30;19.8;;;11.4;;
80868;SDS011;70295;40.182;44.498;2024-03-02T10:35:31;19.2;;;11.8;;
80868;SDS011;70295;40.182;44.498;2024-03-02T10:37:30;22.2;;;11.9;;
80868;SDS011;70295;40.182;44.498;2024-03-02T10:39:30;20.2;;;10.6;;
80868;SDS011;70295;40.182;44.498;2024-03-02T10:41:33;19.7;;;11.3;;
80868;SDS011;70295;40.182;44.498;2024-03-02T10:43:30;20.4;;;12;;
80868;SDS011;70295;40.182;44.498;2024-03-02T10:45:30;22;;;11.8;;
80868;SDS011;70295;40.182;44.498;2024-03-02T10:47:32;20.6;;;12.3;;
80868;SDS011;70295;40.182;44.498;2024-03-02T10:49:30;19.9;;;11.6;;
80868;SDS011;70295;40.182;44.498;2024-03-02T10:51:32;19.3;;;10.9;;
80868;SDS011;70295;40.182;44.498;2024-03-02T10:53:30;20.3;;;11.9;;
80868;SDS011;70295;40.182;44.498;2024-03-02T10:55:30;18.3;;;10.7;;
80868;SDS011;70295;40.182;44.498;2024-03-02T10:57:36;17.7;;;10.9;;
80868;SDS011;70295;40.182;44.498;2024-03-02T10:59:35;17.6;;;10.3;;
80868;SDS011;70295;40.182;44.498;2024-03-02T11:01:32;17.3;;;10.4;;
80868;SDS011;70295;40.182;44.498;2024-03-02T11:03:35;45.1;;;13.4;;
80868;SDS011;70295;40.182;44.498;2024-03-02T11:05:33;22.8;;;10.9;;
80868;SDS011;70295;40.182;44.498;2024-03-02T11:07:30;23.9;;;12.3;;
80868;SDS011;70295;40.182;44.498;2024-03-02T11:09:30;21.3;;;12;;
80868;SDS011;70295;40.182;44.498;2024-03-02T11:11:31;16.3;;;11;;
80868;SDS011;70295;40.182;44.498;2024-03-02T11:13:33;21;;;11.5;;
80868;SDS011;70295;40.182;44.498;2024-03-02T11:15:30;22.3;;;14.1;;
80868;SDS011;70295;40.182;44.498;2024-03-02T11:17:30;31.8;;;13;;
80868;SDS011;70295;40.182;44.498;2024-03-02T11:19:31;58.4;;;14.7;;
80868;SDS011;70295;40.182;44.498;2024-03-02T11:21:30;32.1;;;13.3;;
80868;SDS011;70295;40.182;44.498;2024-03-02T11:23:33;21.4;;;11.8;;
80868;SDS011;70295;40.182;44.498;2024-03-02T11:25:32;21.9;;;12.5;;
80868;SDS011;70295;40.182;44.498;2024-03-02T11:33:30;22.6;;;12.7;;
80868;SDS011;70295;40.182;44.498;2024-03-02T11:35:29;21.9;;;13.3;;
80868;SDS011;70295;40.182;44.498;2024-03-02T11:37:29;22.9;;;13.4;;
80868;SDS011;70295;40.182;44.498;2024-03-02T11:39:30;22.4;;;12.9;;
80868;SDS011;70295;40.182;44.498;2024-03-02T11:41:30;22.9;;;14;;
80868;SDS011;70295;40.182;44.498;2024-03-02T11:43:30;20.8;;;13.2;;
80868;SDS011;70295;40.182;44.498;2024-03-02T11:45:30;23.9;;;13.2;;
80868;SDS011;70295;40.182;44.498;2024-03-02T11:47:32;20.8;;;13.2;;
80868;SDS011;70295;40.182;44.498;2024-03-02T11:51:30;20;;;12.4;;
80868;SDS011;70295;40.182;44.498;2024-03-02T11:53:30;25.8;;;14.7;;
80868;SDS011;70295;40.182;44.498;2024-03-02T11:55:30;20.8;;;13.9;;
80868;SDS011;70295;40.182;44.498;2024-03-02T11:57:30;29.8;;;16.9;;
80868;SDS011;70295;40.182;44.498;2024-03-02T12:00:00;25.4;;;14.9;;
80868;SDS011;70295;40.182;44.498;2024-03-02T12:01:30;28.9;;;15.1;;
80868;SDS011;70295;40.182;44.498;2024-03-02T12:03:30;24.8;;;15;;
80868;SDS011;70295;40.182;44.498;2024-03-02T12:05:30;27.9;;;14.4;;
80868;SDS011;70295;40.182;44.498;2024-03-02T12:07:30;25.9;;;14.1;;
80868;SDS011;70295;40.182;44.498;2024-03-02T12:09:30;26.9;;;14.3;;